sensor_id;sensor_type;location;lat;lon;timestamp;P1;durP1;ratioP1;P2;durP2;ratioP2
41837;SDS011;27511;52.042;5.178;2022-12-05T00:00:17;39.95;;;18.50;;
41837;SDS011;27511;52.042;5.178;2022-12-05T00:02:43;46.88;;;18.42;;
41837;SDS011;27511;52.042;5.178;2022-12-05T00:05:09;42.47;;;19.10;;
41837;SDS011;27511;52.042;5.178;2022-12-05T00:07:35;40.85;;;18.80;;
41837;SDS011;27511;52.042;5.178;2022-12-05T00:10:02;40.97;;;18.40;;
41837;SDS011;27511;52.042;5.178;2022-12-05T00:12:28;40.35;;;17.55;;
41837;SDS011;27511;52.042;5.178;2022-12-05T00:14:54;40.50;;;18.55;;
41837;SDS011;27511;52.042;5.178;2022-12-05T00:17:19;41.20;;;18.35;;
41837;SDS011;27511;52.042;5.178;2022-12-05T00:19:45;45.97;;;19.25;;
41837;SDS011;27511;52.042;5.178;2022-12-05T00:22:10;43.78;;;18.38;;
41837;SDS011;27511;52.042;5.178;2022-12-05T00:24:36;40.17;;;18.88;;
41837;SDS011;27511;52.042;5.178;2022-12-05T00:27:03;45.00;;;19.67;;
41837;SDS011;27511;52.042;5.178;2022-12-05T00:29:29;43.83;;;19.05;;
41837;SDS011;27511;52.042;5.178;2022-12-05T00:31:54;39.55;;;17.70;;
41837;SDS011;27511;52.042;5.178;2022-12-05T00:34:20;38.13;;;17.92;;
41837;SDS011;27511;52.042;5.178;2022-12-05T00:36:46;41.38;;;16.67;;
41837;SDS011;27511;52.042;5.178;2022-12-05T00:39:11;39.92;;;16.52;;
41837;SDS011;27511;52.042;5.178;2022-12-05T00:41:40;39.55;;;17.55;;
41837;SDS011;27511;52.042;5.178;2022-12-05T00:44:07;36.72;;;16.85;;
41837;SDS011;27511;52.042;5.178;2022-12-05T00:46:34;36.55;;;16.45;;
41837;SDS011;27511;52.042;5.178;2022-12-05T00:49:00;37.03;;;16.67;;
41837;SDS011;27511;52.042;5.178;2022-12-05T00:51:31;41.88;;;18.60;;
41837;SDS011;27511;52.042;5.178;2022-12-05T00:54:03;39.40;;;17.55;;
41837;SDS011;27511;52.042;5.178;2022-12-05T00:56:30;38.95;;;16.27;;
41837;SDS011;27511;52.042;5.178;2022-12-05T00:58:57;40.78;;;17.20;;
41837;SDS011;27511;52.042;5.178;2022-12-05T01:01:24;39.40;;;16.70;;
41837;SDS011;27511;52.042;5.178;2022-12-05T01:03:53;36.80;;;16.23;;
41837;SDS011;27511;52.042;5.178;2022-12-05T01:06:20;37.05;;;16.70;;
41837;SDS011;27511;52.042;5.178;2022-12-05T01:08:46;36.28;;;16.35;;
41837;SDS011;27511;52.042;5.178;2022-12-05T01:11:16;42.63;;;19.65;;
41837;SDS011;27511;52.042;5.178;2022-12-05T01:13:43;37.08;;;17.70;;
41837;SDS011;27511;52.042;5.178;2022-12-05T01:16:14;41.13;;;16.55;;
41837;SDS011;27511;52.042;5.178;2022-12-05T01:19:05;40.65;;;17.15;;
41837;SDS011;27511;52.042;5.178;2022-12-05T01:21:33;37.80;;;15.82;;
41837;SDS011;27511;52.042;5.178;2022-12-05T01:23:59;42.75;;;17.83;;
41837;SDS011;27511;52.042;5.178;2022-12-05T01:26:24;40.08;;;16.40;;
41837;SDS011;27511;52.042;5.178;2022-12-05T01:28:50;41.63;;;18.05;;
41837;SDS011;27511;52.042;5.178;2022-12-05T01:31:23;42.38;;;17.35;;
41837;SDS011;27511;52.042;5.178;2022-12-05T01:33:52;40.03;;;17.88;;
41837;SDS011;27511;52.042;5.178;2022-12-05T01:36:19;34.83;;;15.82;;
41837;SDS011;27511;52.042;5.178;2022-12-05T01:38:45;40.28;;;17.92;;
41837;SDS011;27511;52.042;5.178;2022-12-05T01:41:15;39.80;;;17.42;;
41837;SDS011;27511;52.042;5.178;2022-12-05T01:46:44;41.80;;;17.08;;
41837;SDS011;27511;52.042;5.178;2022-12-05T01:49:13;40.58;;;17.73;;
41837;SDS011;27511;52.042;5.178;2022-12-05T01:51:40;39.53;;;17.45;;
41837;SDS011;27511;52.042;5.178;2022-12-05T01:54:10;44.50;;;18.52;;
41837;SDS011;27511;52.042;5.178;2022-12-05T01:56:36;40.45;;;18.65;;
41837;SDS011;27511;52.042;5.178;2022-12-05T01:59:06;42.67;;;18.40;;
41837;SDS011;27511;52.042;5.178;2022-12-05T02:01:33;39.78;;;16.75;;
41837;SDS011;27511;52.042;5.178;2022-12-05T02:03:59;32.03;;;15.68;;
41837;SDS011;27511;52.042;5.178;2022-12-05T02:06:26;41.35;;;17.38;;
41837;SDS011;27511;52.042;5.178;2022-12-05T02:08:52;39.95;;;18.38;;
41837;SDS011;27511;52.042;5.178;2022-12-05T02:11:19;37.60;;;17.30;;
41837;SDS011;27511;52.042;5.178;2022-12-05T02:13:52;39.22;;;17.52;;
41837;SDS011;27511;52.042;5.178;2022-12-05T02:19:31;40.50;;;16.10;;
41837;SDS011;27511;52.042;5.178;2022-12-05T02:33:59;39.33;;;17.33;;
41837;SDS011;27511;52.042;5.178;2022-12-05T02:39:02;38.65;;;17.40;;
41837;SDS011;27511;52.042;5.178;2022-12-05T02:41:40;38.78;;;17.20;;
41837;SDS011;27511;52.042;5.178;2022-12-05T02:44:22;42.50;;;17.60;;
41837;SDS011;27511;52.042;5.178;2022-12-05T02:46:54;38.67;;;17.50;;
41837;SDS011;27511;52.042;5.178;2022-12-05T02:49:24;37.67;;;16.70;;
41837;SDS011;27511;52.042;5.178;2022-12-05T02:51:55;36.25;;;16.42;;
41837;SDS011;27511;52.042;5.178;2022-12-05T02:54:24;30.75;;;15.63;;
41837;SDS011;27511;52.042;5.178;2022-12-05T02:56:54;37.92;;;16.67;;
41837;SDS011;27511;52.042;5.178;2022-12-05T02:59:21;39.20;;;15.98;;
41837;SDS011;27511;52.042;5.178;2022-12-05T03:01:46;38.65;;;17.25;;
41837;SDS011;27511;52.042;5.178;2022-12-05T03:04:13;36.90;;;17.17;;
41837;SDS011;27511;52.042;5.178;2022-12-05T03:06:41;34.38;;;16.73;;
41837;SDS011;27511;52.042;5.178;2022-12-05T03:09:20;40.60;;;16.85;;
41837;SDS011;27511;52.042;5.178;2022-12-05T03:11:59;35.60;;;17.05;;
41837;SDS011;27511;52.042;5.178;2022-12-05T03:14:43;38.75;;;15.73;;
41837;SDS011;27511;52.042;5.178;2022-12-05T03:17:15;36.50;;;17.02;;
41837;SDS011;27511;52.042;5.178;2022-12-05T03:19:54;33.45;;;15.65;;
41837;SDS011;27511;52.042;5.178;2022-12-05T03:22:42;34.97;;;15.88;;
41837;SDS011;27511;52.042;5.178;2022-12-05T03:25:15;36.97;;;15.95;;
41837;SDS011;27511;52.042;5.178;2022-12-05T03:27:49;34.50;;;15.48;;
41837;SDS011;27511;52.042;5.178;2022-12-05T03:30:19;43.50;;;16.50;;
41837;SDS011;27511;52.042;5.178;2022-12-05T03:46:13;38.08;;;16.45;;
41837;SDS011;27511;52.042;5.178;2022-12-05T03:51:22;40.92;;;16.73;;
41837;SDS011;27511;52.042;5.178;2022-12-05T03:53:54;37.00;;;16.13;;
41837;SDS011;27511;52.042;5.178;2022-12-05T03:56:46;35.00;;;15.57;;
41837;SDS011;27511;52.042;5.178;2022-12-05T04:01:58;32.40;;;15.35;;
41837;SDS011;27511;52.042;5.178;2022-12-05T04:04:30;36.10;;;16.05;;
41837;SDS011;27511;52.042;5.178;2022-12-05T04:07:02;37.00;;;16.02;;
41837;SDS011;27511;52.042;5.178;2022-12-05T04:09:35;37.85;;;15.32;;
41837;SDS011;27511;52.042;5.178;2022-12-05T04:14:38;32.38;;;14.70;;
41837;SDS011;27511;52.042;5.178;2022-12-05T04:17:11;35.03;;;13.87;;
41837;SDS011;27511;52.042;5.178;2022-12-05T04:22:38;35.70;;;15.20;;
41837;SDS011;27511;52.042;5.178;2022-12-05T04:25:05;34.83;;;15.88;;
41837;SDS011;27511;52.042;5.178;2022-12-05T04:30:58;32.05;;;15.55;;
41837;SDS011;27511;52.042;5.178;2022-12-05T04:33:30;34.47;;;15.65;;
41837;SDS011;27511;52.042;5.178;2022-12-05T04:38:50;32.05;;;15.02;;
41837;SDS011;27511;52.042;5.178;2022-12-05T04:41:27;34.22;;;14.50;;
41837;SDS011;27511;52.042;5.178;2022-12-05T04:44:01;31.70;;;13.83;;
41837;SDS011;27511;52.042;5.178;2022-12-05T04:46:31;34.38;;;15.73;;
41837;SDS011;27511;52.042;5.178;2022-12-05T04:48:59;29.17;;;13.90;;
41837;SDS011;27511;52.042;5.178;2022-12-05T04:51:28;36.22;;;15.50;;
41837;SDS011;27511;52.042;5.178;2022-12-05T04:53:57;33.47;;;16.05;;
41837;SDS011;27511;52.042;5.178;2022-12-05T04:56:47;32.72;;;15.02;;
41837;SDS011;27511;52.042;5.178;2022-12-05T04:59:16;32.67;;;14.18;;
41837;SDS011;27511;52.042;5.178;2022-12-05T05:04:18;31.67;;;13.68;;
41837;SDS011;27511;52.042;5.178;2022-12-05T05:06:49;33.25;;;14.38;;
41837;SDS011;27511;52.042;5.178;2022-12-05T05:09:15;30.98;;;13.73;;
41837;SDS011;27511;52.042;5.178;2022-12-05T05:11:41;32.30;;;14.68;;
41837;SDS011;27511;52.042;5.178;2022-12-05T05:14:06;29.80;;;13.75;;
41837;SDS011;27511;52.042;5.178;2022-12-05T05:16:37;34.90;;;14.43;;
41837;SDS011;27511;52.042;5.178;2022-12-05T05:19:04;33.13;;;15.95;;
41837;SDS011;27511;52.042;5.178;2022-12-05T05:21:32;32.95;;;14.70;;
41837;SDS011;27511;52.042;5.178;2022-12-05T05:23:59;29.63;;;14.50;;
41837;SDS011;27511;52.042;5.178;2022-12-05T05:26:26;35.03;;;15.75;;
41837;SDS011;27511;52.042;5.178;2022-12-05T05:28:53;30.77;;;14.30;;
41837;SDS011;27511;52.042;5.178;2022-12-05T05:31:19;35.25;;;15.23;;
41837;SDS011;27511;52.042;5.178;2022-12-05T05:33:49;28.20;;;14.23;;
41837;SDS011;27511;52.042;5.178;2022-12-05T05:36:15;31.42;;;15.32;;
41837;SDS011;27511;52.042;5.178;2022-12-05T05:38:43;32.90;;;15.88;;
41837;SDS011;27511;52.042;5.178;2022-12-05T05:41:13;33.20;;;14.77;;
41837;SDS011;27511;52.042;5.178;2022-12-05T05:43:44;34.83;;;15.70;;
41837;SDS011;27511;52.042;5.178;2022-12-05T05:46:10;35.70;;;15.68;;
41837;SDS011;27511;52.042;5.178;2022-12-05T05:48:36;37.35;;;15.40;;
41837;SDS011;27511;52.042;5.178;2022-12-05T05:51:03;29.58;;;14.40;;
41837;SDS011;27511;52.042;5.178;2022-12-05T05:53:30;32.88;;;15.18;;
41837;SDS011;27511;52.042;5.178;2022-12-05T05:55:56;35.65;;;15.05;;
41837;SDS011;27511;52.042;5.178;2022-12-05T05:58:21;37.25;;;16.90;;
41837;SDS011;27511;52.042;5.178;2022-12-05T06:00:47;32.75;;;15.18;;
41837;SDS011;27511;52.042;5.178;2022-12-05T06:03:12;40.28;;;16.38;;
41837;SDS011;27511;52.042;5.178;2022-12-05T06:05:38;34.17;;;15.07;;
41837;SDS011;27511;52.042;5.178;2022-12-05T06:08:04;30.17;;;15.43;;
41837;SDS011;27511;52.042;5.178;2022-12-05T06:10:29;33.33;;;15.48;;
41837;SDS011;27511;52.042;5.178;2022-12-05T06:12:56;38.25;;;15.18;;
41837;SDS011;27511;52.042;5.178;2022-12-05T06:15:22;38.97;;;15.38;;
41837;SDS011;27511;52.042;5.178;2022-12-05T06:17:48;34.03;;;16.27;;
41837;SDS011;27511;52.042;5.178;2022-12-05T06:20:14;31.92;;;14.25;;
41837;SDS011;27511;52.042;5.178;2022-12-05T06:22:39;33.03;;;14.88;;
41837;SDS011;27511;52.042;5.178;2022-12-05T06:25:05;33.83;;;16.15;;
41837;SDS011;27511;52.042;5.178;2022-12-05T06:27:31;32.58;;;14.23;;
41837;SDS011;27511;52.042;5.178;2022-12-05T06:29:57;34.58;;;14.45;;
41837;SDS011;27511;52.042;5.178;2022-12-05T06:32:23;34.88;;;15.68;;
41837;SDS011;27511;52.042;5.178;2022-12-05T06:34:48;37.13;;;15.93;;
41837;SDS011;27511;52.042;5.178;2022-12-05T06:37:14;31.75;;;15.75;;
41837;SDS011;27511;52.042;5.178;2022-12-05T06:39:39;31.98;;;15.10;;
41837;SDS011;27511;52.042;5.178;2022-12-05T06:42:05;31.35;;;14.55;;
41837;SDS011;27511;52.042;5.178;2022-12-05T06:44:31;34.05;;;14.55;;
41837;SDS011;27511;52.042;5.178;2022-12-05T06:46:56;32.35;;;14.32;;
41837;SDS011;27511;52.042;5.178;2022-12-05T06:49:22;37.38;;;15.88;;
41837;SDS011;27511;52.042;5.178;2022-12-05T06:51:51;33.00;;;14.82;;
41837;SDS011;27511;52.042;5.178;2022-12-05T06:54:17;33.47;;;15.38;;
41837;SDS011;27511;52.042;5.178;2022-12-05T06:56:43;41.20;;;15.55;;
41837;SDS011;27511;52.042;5.178;2022-12-05T06:59:08;35.28;;;14.57;;
41837;SDS011;27511;52.042;5.178;2022-12-05T07:01:34;39.13;;;16.20;;
41837;SDS011;27511;52.042;5.178;2022-12-05T07:04:02;35.17;;;15.52;;
41837;SDS011;27511;52.042;5.178;2022-12-05T07:06:29;35.90;;;14.52;;
41837;SDS011;27511;52.042;5.178;2022-12-05T07:08:55;31.65;;;14.45;;
41837;SDS011;27511;52.042;5.178;2022-12-05T07:11:20;38.35;;;15.95;;
41837;SDS011;27511;52.042;5.178;2022-12-05T07:13:46;35.53;;;15.75;;
41837;SDS011;27511;52.042;5.178;2022-12-05T07:16:12;38.42;;;15.27;;
41837;SDS011;27511;52.042;5.178;2022-12-05T07:18:37;35.97;;;16.02;;
41837;SDS011;27511;52.042;5.178;2022-12-05T07:21:07;33.17;;;14.35;;
41837;SDS011;27511;52.042;5.178;2022-12-05T07:23:35;32.95;;;15.13;;
41837;SDS011;27511;52.042;5.178;2022-12-05T07:26:04;30.52;;;13.68;;
41837;SDS011;27511;52.042;5.178;2022-12-05T07:28:31;31.50;;;14.77;;
41837;SDS011;27511;52.042;5.178;2022-12-05T07:31:04;31.75;;;15.13;;
41837;SDS011;27511;52.042;5.178;2022-12-05T07:33:31;44.92;;;18.20;;
41837;SDS011;27511;52.042;5.178;2022-12-05T07:35:58;30.00;;;15.70;;
41837;SDS011;27511;52.042;5.178;2022-12-05T07:38:28;34.65;;;15.20;;
41837;SDS011;27511;52.042;5.178;2022-12-05T07:40:54;33.70;;;15.07;;
41837;SDS011;27511;52.042;5.178;2022-12-05T07:43:20;34.13;;;14.32;;
41837;SDS011;27511;52.042;5.178;2022-12-05T07:45:46;28.27;;;13.23;;
41837;SDS011;27511;52.042;5.178;2022-12-05T07:48:11;29.42;;;12.60;;
41837;SDS011;27511;52.042;5.178;2022-12-05T07:50:37;36.22;;;14.25;;
41837;SDS011;27511;52.042;5.178;2022-12-05T07:53:02;36.28;;;14.40;;
41837;SDS011;27511;52.042;5.178;2022-12-05T07:55:28;27.55;;;13.18;;
41837;SDS011;27511;52.042;5.178;2022-12-05T07:57:53;27.13;;;13.88;;
41837;SDS011;27511;52.042;5.178;2022-12-05T08:00:19;33.35;;;13.52;;
41837;SDS011;27511;52.042;5.178;2022-12-05T08:02:45;28.35;;;12.55;;
41837;SDS011;27511;52.042;5.178;2022-12-05T08:05:11;30.27;;;12.60;;
41837;SDS011;27511;52.042;5.178;2022-12-05T08:07:36;27.15;;;13.38;;
41837;SDS011;27511;52.042;5.178;2022-12-05T08:10:02;32.30;;;13.77;;
41837;SDS011;27511;52.042;5.178;2022-12-05T08:12:28;30.17;;;12.98;;
41837;SDS011;27511;52.042;5.178;2022-12-05T08:14:54;30.80;;;13.93;;
41837;SDS011;27511;52.042;5.178;2022-12-05T08:17:19;25.67;;;12.35;;
41837;SDS011;27511;52.042;5.178;2022-12-05T08:19:45;23.98;;;12.50;;
41837;SDS011;27511;52.042;5.178;2022-12-05T08:22:10;28.05;;;12.27;;
41837;SDS011;27511;52.042;5.178;2022-12-05T08:24:36;24.95;;;12.40;;
41837;SDS011;27511;52.042;5.178;2022-12-05T08:27:03;28.40;;;13.75;;
41837;SDS011;27511;52.042;5.178;2022-12-05T08:29:29;26.27;;;12.52;;
41837;SDS011;27511;52.042;5.178;2022-12-05T08:31:54;30.23;;;12.73;;
41837;SDS011;27511;52.042;5.178;2022-12-05T08:34:20;25.10;;;12.23;;
41837;SDS011;27511;52.042;5.178;2022-12-05T08:36:46;27.08;;;12.60;;
41837;SDS011;27511;52.042;5.178;2022-12-05T08:39:13;26.17;;;10.98;;
41837;SDS011;27511;52.042;5.178;2022-12-05T08:41:40;29.15;;;13.40;;
41837;SDS011;27511;52.042;5.178;2022-12-05T08:44:06;24.52;;;11.45;;
41837;SDS011;27511;52.042;5.178;2022-12-05T08:46:34;24.70;;;12.32;;
41837;SDS011;27511;52.042;5.178;2022-12-05T08:49:02;25.77;;;11.75;;
41837;SDS011;27511;52.042;5.178;2022-12-05T08:51:28;25.42;;;11.68;;
41837;SDS011;27511;52.042;5.178;2022-12-05T08:53:54;28.65;;;12.15;;
41837;SDS011;27511;52.042;5.178;2022-12-05T08:56:20;25.88;;;12.32;;
41837;SDS011;27511;52.042;5.178;2022-12-05T08:58:46;27.88;;;12.00;;
41837;SDS011;27511;52.042;5.178;2022-12-05T09:01:13;25.15;;;11.82;;
41837;SDS011;27511;52.042;5.178;2022-12-05T09:03:40;22.02;;;10.63;;
41837;SDS011;27511;52.042;5.178;2022-12-05T09:06:17;26.20;;;12.27;;
41837;SDS011;27511;52.042;5.178;2022-12-05T09:08:44;104.90;;;41.25;;
41837;SDS011;27511;52.042;5.178;2022-12-05T09:11:20;113.63;;;46.13;;
41837;SDS011;27511;52.042;5.178;2022-12-05T09:13:48;68.97;;;31.45;;
41837;SDS011;27511;52.042;5.178;2022-12-05T09:16:16;55.15;;;25.13;;
41837;SDS011;27511;52.042;5.178;2022-12-05T09:18:43;50.30;;;24.15;;
41837;SDS011;27511;52.042;5.178;2022-12-05T09:21:18;39.60;;;20.25;;
41837;SDS011;27511;52.042;5.178;2022-12-05T09:23:45;34.17;;;18.42;;
41837;SDS011;27511;52.042;5.178;2022-12-05T09:26:13;34.10;;;17.33;;
41837;SDS011;27511;52.042;5.178;2022-12-05T09:28:40;24.98;;;12.50;;
41837;SDS011;27511;52.042;5.178;2022-12-05T09:31:08;26.58;;;12.43;;
41837;SDS011;27511;52.042;5.178;2022-12-05T09:33:36;22.00;;;11.00;;
41837;SDS011;27511;52.042;5.178;2022-12-05T09:36:04;19.88;;;11.05;;
41837;SDS011;27511;52.042;5.178;2022-12-05T09:38:31;20.17;;;10.88;;
41837;SDS011;27511;52.042;5.178;2022-12-05T09:41:01;20.42;;;11.85;;
41837;SDS011;27511;52.042;5.178;2022-12-05T09:47:15;19.35;;;9.13;;
41837;SDS011;27511;52.042;5.178;2022-12-05T09:55:59;33.10;;;15.25;;
41837;SDS011;27511;52.042;5.178;2022-12-05T10:00:58;41.03;;;20.85;;
41837;SDS011;27511;52.042;5.178;2022-12-05T10:04:42;41.65;;;22.20;;
41837;SDS011;27511;52.042;5.178;2022-12-05T10:12:01;17.02;;;10.10;;
41837;SDS011;27511;52.042;5.178;2022-12-05T10:17:36;19.05;;;10.63;;
41837;SDS011;27511;52.042;5.178;2022-12-05T10:20:10;19.83;;;10.52;;
41837;SDS011;27511;52.042;5.178;2022-12-05T10:22:49;17.15;;;9.65;;
41837;SDS011;27511;52.042;5.178;2022-12-05T10:25:19;14.55;;;9.45;;
41837;SDS011;27511;52.042;5.178;2022-12-05T10:27:50;19.85;;;11.48;;
41837;SDS011;27511;52.042;5.178;2022-12-05T10:30:21;18.23;;;10.65;;
41837;SDS011;27511;52.042;5.178;2022-12-05T10:32:50;18.40;;;9.77;;
41837;SDS011;27511;52.042;5.178;2022-12-05T10:35:20;21.10;;;11.15;;
41837;SDS011;27511;52.042;5.178;2022-12-05T10:37:57;19.27;;;10.93;;
41837;SDS011;27511;52.042;5.178;2022-12-05T10:40:44;18.05;;;9.23;;
41837;SDS011;27511;52.042;5.178;2022-12-05T10:43:15;16.40;;;9.23;;
41837;SDS011;27511;52.042;5.178;2022-12-05T10:45:48;14.52;;;9.00;;
41837;SDS011;27511;52.042;5.178;2022-12-05T10:48:15;12.98;;;8.55;;
41837;SDS011;27511;52.042;5.178;2022-12-05T10:50:43;12.55;;;7.45;;
41837;SDS011;27511;52.042;5.178;2022-12-05T10:53:14;10.10;;;7.03;;
41837;SDS011;27511;52.042;5.178;2022-12-05T10:55:52;12.85;;;7.50;;
41837;SDS011;27511;52.042;5.178;2022-12-05T10:58:19;11.60;;;7.10;;
41837;SDS011;27511;52.042;5.178;2022-12-05T11:00:53;9.52;;;5.70;;
41837;SDS011;27511;52.042;5.178;2022-12-05T11:05:52;8.60;;;5.53;;
41837;SDS011;27511;52.042;5.178;2022-12-05T11:08:23;11.50;;;6.97;;
41837;SDS011;27511;52.042;5.178;2022-12-05T11:10:59;9.45;;;5.95;;
41837;SDS011;27511;52.042;5.178;2022-12-05T11:13:26;7.55;;;5.00;;
41837;SDS011;27511;52.042;5.178;2022-12-05T11:15:52;8.70;;;5.65;;
41837;SDS011;27511;52.042;5.178;2022-12-05T11:18:25;8.40;;;4.90;;
41837;SDS011;27511;52.042;5.178;2022-12-05T11:20:53;8.25;;;4.93;;
41837;SDS011;27511;52.042;5.178;2022-12-05T11:23:27;7.68;;;4.55;;
41837;SDS011;27511;52.042;5.178;2022-12-05T11:25:54;8.65;;;5.10;;
41837;SDS011;27511;52.042;5.178;2022-12-05T11:28:42;8.32;;;4.82;;
41837;SDS011;27511;52.042;5.178;2022-12-05T11:33:38;8.55;;;4.90;;
41837;SDS011;27511;52.042;5.178;2022-12-05T11:36:08;8.05;;;5.10;;
41837;SDS011;27511;52.042;5.178;2022-12-05T11:38:36;5.85;;;3.92;;
41837;SDS011;27511;52.042;5.178;2022-12-05T11:46:27;6.75;;;3.80;;
41837;SDS011;27511;52.042;5.178;2022-12-05T11:52:01;9.30;;;4.18;;
41837;SDS011;27511;52.042;5.178;2022-12-05T12:12:38;8.15;;;4.13;;
41837;SDS011;27511;52.042;5.178;2022-12-05T12:24:13;7.20;;;4.30;;
41837;SDS011;27511;52.042;5.178;2022-12-05T12:27:14;6.65;;;3.80;;
41837;SDS011;27511;52.042;5.178;2022-12-05T12:30:09;9.57;;;4.00;;
41837;SDS011;27511;52.042;5.178;2022-12-05T12:33:16;9.82;;;4.72;;
41837;SDS011;27511;52.042;5.178;2022-12-05T12:35:45;8.07;;;4.25;;
41837;SDS011;27511;52.042;5.178;2022-12-05T12:38:33;5.93;;;3.65;;
41837;SDS011;27511;52.042;5.178;2022-12-05T12:41:07;7.40;;;4.15;;
41837;SDS011;27511;52.042;5.178;2022-12-05T12:46:58;9.27;;;4.40;;
41837;SDS011;27511;52.042;5.178;2022-12-05T12:52:14;7.07;;;3.95;;
41837;SDS011;27511;52.042;5.178;2022-12-05T12:57:44;6.70;;;3.90;;
41837;SDS011;27511;52.042;5.178;2022-12-05T13:02:55;9.65;;;4.28;;
41837;SDS011;27511;52.042;5.178;2022-12-05T13:05:33;7.78;;;4.50;;
41837;SDS011;27511;52.042;5.178;2022-12-05T13:11:06;7.18;;;4.95;;
41837;SDS011;27511;52.042;5.178;2022-12-05T13:13:39;7.05;;;4.00;;
41837;SDS011;27511;52.042;5.178;2022-12-05T13:16:12;8.27;;;3.92;;
41837;SDS011;27511;52.042;5.178;2022-12-05T13:18:50;7.32;;;4.35;;
41837;SDS011;27511;52.042;5.178;2022-12-05T13:21:15;8.52;;;4.50;;
41837;SDS011;27511;52.042;5.178;2022-12-05T13:23:49;10.45;;;4.50;;
41837;SDS011;27511;52.042;5.178;2022-12-05T13:26:19;10.27;;;4.18;;
41837;SDS011;27511;52.042;5.178;2022-12-05T13:28:49;7.65;;;3.83;;
41837;SDS011;27511;52.042;5.178;2022-12-05T13:31:17;9.20;;;4.53;;
41837;SDS011;27511;52.042;5.178;2022-12-05T13:33:44;6.57;;;3.20;;
41837;SDS011;27511;52.042;5.178;2022-12-05T13:36:15;7.07;;;3.90;;
41837;SDS011;27511;52.042;5.178;2022-12-05T13:39:05;6.18;;;3.22;;
41837;SDS011;27511;52.042;5.178;2022-12-05T13:41:59;6.53;;;3.20;;
41837;SDS011;27511;52.042;5.178;2022-12-05T13:47:22;4.88;;;3.10;;
41837;SDS011;27511;52.042;5.178;2022-12-05T13:50:01;7.07;;;3.63;;
41837;SDS011;27511;52.042;5.178;2022-12-05T13:52:31;7.40;;;3.47;;
41837;SDS011;27511;52.042;5.178;2022-12-05T13:57:47;6.95;;;2.95;;
41837;SDS011;27511;52.042;5.178;2022-12-05T14:00:24;9.38;;;3.47;;
41837;SDS011;27511;52.042;5.178;2022-12-05T14:03:02;5.60;;;3.72;;
41837;SDS011;27511;52.042;5.178;2022-12-05T14:15:43;8.48;;;4.18;;
41837;SDS011;27511;52.042;5.178;2022-12-05T14:18:12;7.38;;;3.45;;
41837;SDS011;27511;52.042;5.178;2022-12-05T14:23:10;6.00;;;3.53;;
41837;SDS011;27511;52.042;5.178;2022-12-05T14:26:18;5.28;;;3.13;;
41837;SDS011;27511;52.042;5.178;2022-12-05T14:37:34;5.63;;;2.72;;
41837;SDS011;27511;52.042;5.178;2022-12-05T14:40:03;5.25;;;3.13;;
41837;SDS011;27511;52.042;5.178;2022-12-05T14:48:25;4.78;;;3.08;;
41837;SDS011;27511;52.042;5.178;2022-12-05T14:51:00;5.80;;;3.55;;
41837;SDS011;27511;52.042;5.178;2022-12-05T14:53:29;4.75;;;3.00;;
41837;SDS011;27511;52.042;5.178;2022-12-05T14:56:09;5.68;;;3.22;;
41837;SDS011;27511;52.042;5.178;2022-12-05T14:58:38;5.90;;;3.38;;
41837;SDS011;27511;52.042;5.178;2022-12-05T15:01:18;7.70;;;3.40;;
41837;SDS011;27511;52.042;5.178;2022-12-05T15:04:03;8.00;;;3.58;;
41837;SDS011;27511;52.042;5.178;2022-12-05T15:09:27;6.28;;;3.10;;
41837;SDS011;27511;52.042;5.178;2022-12-05T15:11:54;6.20;;;3.55;;
41837;SDS011;27511;52.042;5.178;2022-12-05T15:14:21;6.70;;;3.83;;
41837;SDS011;27511;52.042;5.178;2022-12-05T15:16:51;5.35;;;2.97;;
41837;SDS011;27511;52.042;5.178;2022-12-05T15:19:21;5.82;;;3.70;;
41837;SDS011;27511;52.042;5.178;2022-12-05T15:21:54;5.47;;;2.83;;
41837;SDS011;27511;52.042;5.178;2022-12-05T15:24:24;9.00;;;3.22;;
41837;SDS011;27511;52.042;5.178;2022-12-05T15:26:53;5.63;;;2.88;;
41837;SDS011;27511;52.042;5.178;2022-12-05T15:32:01;6.35;;;3.47;;
41837;SDS011;27511;52.042;5.178;2022-12-05T15:47:37;5.13;;;3.30;;
41837;SDS011;27511;52.042;5.178;2022-12-05T15:50:03;5.70;;;3.20;;
41837;SDS011;27511;52.042;5.178;2022-12-05T15:54:59;6.18;;;3.20;;
41837;SDS011;27511;52.042;5.178;2022-12-05T15:57:35;5.50;;;3.13;;
41837;SDS011;27511;52.042;5.178;2022-12-05T16:00:05;7.20;;;3.67;;
41837;SDS011;27511;52.042;5.178;2022-12-05T16:02:49;5.88;;;3.50;;
41837;SDS011;27511;52.042;5.178;2022-12-05T16:05:23;6.97;;;3.83;;
41837;SDS011;27511;52.042;5.178;2022-12-05T16:07:53;6.10;;;3.08;;
41837;SDS011;27511;52.042;5.178;2022-12-05T16:10:19;6.53;;;4.03;;
41837;SDS011;27511;52.042;5.178;2022-12-05T16:12:45;6.32;;;3.35;;
41837;SDS011;27511;52.042;5.178;2022-12-05T16:15:13;6.32;;;3.42;;
41837;SDS011;27511;52.042;5.178;2022-12-05T16:17:46;5.72;;;3.22;;
41837;SDS011;27511;52.042;5.178;2022-12-05T16:22:42;6.70;;;2.90;;
41837;SDS011;27511;52.042;5.178;2022-12-05T16:25:11;8.63;;;3.75;;
41837;SDS011;27511;52.042;5.178;2022-12-05T16:27:40;18.55;;;9.68;;
41837;SDS011;27511;52.042;5.178;2022-12-05T16:32:36;7.70;;;4.95;;
41837;SDS011;27511;52.042;5.178;2022-12-05T16:35:03;9.43;;;5.45;;
41837;SDS011;27511;52.042;5.178;2022-12-05T16:38:03;11.18;;;5.93;;
41837;SDS011;27511;52.042;5.178;2022-12-05T16:40:40;11.77;;;6.32;;
41837;SDS011;27511;52.042;5.178;2022-12-05T16:48:30;8.18;;;4.95;;
41837;SDS011;27511;52.042;5.178;2022-12-05T16:53:40;9.75;;;5.32;;
41837;SDS011;27511;52.042;5.178;2022-12-05T16:56:21;9.15;;;6.45;;
41837;SDS011;27511;52.042;5.178;2022-12-05T16:58:52;12.48;;;5.60;;
41837;SDS011;27511;52.042;5.178;2022-12-05T17:01:18;11.95;;;5.88;;
41837;SDS011;27511;52.042;5.178;2022-12-05T17:03:54;15.75;;;7.82;;
41837;SDS011;27511;52.042;5.178;2022-12-05T17:06:21;9.07;;;5.90;;
41837;SDS011;27511;52.042;5.178;2022-12-05T17:08:48;10.57;;;5.40;;
41837;SDS011;27511;52.042;5.178;2022-12-05T17:13:43;15.88;;;7.70;;
41837;SDS011;27511;52.042;5.178;2022-12-05T17:16:11;8.15;;;5.88;;
41837;SDS011;27511;52.042;5.178;2022-12-05T17:18:37;11.40;;;5.82;;
41837;SDS011;27511;52.042;5.178;2022-12-05T17:21:02;9.75;;;5.95;;
41837;SDS011;27511;52.042;5.178;2022-12-05T17:23:28;11.18;;;5.68;;
41837;SDS011;27511;52.042;5.178;2022-12-05T17:25:54;9.30;;;4.95;;
41837;SDS011;27511;52.042;5.178;2022-12-05T17:28:22;10.90;;;4.95;;
41837;SDS011;27511;52.042;5.178;2022-12-05T17:30:48;8.95;;;5.15;;
41837;SDS011;27511;52.042;5.178;2022-12-05T17:33:14;9.27;;;4.78;;
41837;SDS011;27511;52.042;5.178;2022-12-05T17:35:41;7.50;;;5.22;;
41837;SDS011;27511;52.042;5.178;2022-12-05T17:38:07;9.40;;;4.78;;
41837;SDS011;27511;52.042;5.178;2022-12-05T17:40:34;7.13;;;4.53;;
41837;SDS011;27511;52.042;5.178;2022-12-05T17:43:00;8.63;;;4.75;;
41837;SDS011;27511;52.042;5.178;2022-12-05T17:45:26;9.75;;;5.85;;
41837;SDS011;27511;52.042;5.178;2022-12-05T17:47:51;16.63;;;7.32;;
41837;SDS011;27511;52.042;5.178;2022-12-05T17:50:18;12.65;;;6.05;;
41837;SDS011;27511;52.042;5.178;2022-12-05T17:52:46;15.32;;;7.07;;
41837;SDS011;27511;52.042;5.178;2022-12-05T17:55:21;11.07;;;6.47;;
41837;SDS011;27511;52.042;5.178;2022-12-05T17:57:52;8.10;;;5.18;;
41837;SDS011;27511;52.042;5.178;2022-12-05T18:00:18;9.55;;;5.38;;
41837;SDS011;27511;52.042;5.178;2022-12-05T18:02:44;9.18;;;5.63;;
41837;SDS011;27511;52.042;5.178;2022-12-05T18:05:13;11.73;;;6.30;;